sensor_id;sensor_type;location;lat;lon;timestamp;pressure;altitude;pressure_sealevel;temperature;humidity
12781;BME280;6454;43.304;24.344;2022-12-31T00:01:11;101347.66;;;7.55;78.53
12781;BME280;6454;43.304;24.344;2022-12-31T00:03:38;101338.94;;;7.53;78.57
12781;BME280;6454;43.304;24.344;2022-12-31T00:06:14;101348.59;;;7.49;78.82
12781;BME280;6454;43.304;24.344;2022-12-31T00:08:43;101338.97;;;7.41;78.79
12781;BME280;6454;43.304;24.344;2022-12-31T00:11:10;101333.81;;;7.28;78.77
12781;BME280;6454;43.304;24.344;2022-12-31T00:13:37;101349.66;;;7.25;78.90
12781;BME280;6454;43.304;24.344;2022-12-31T00:16:06;101346.25;;;7.06;79.27
12781;BME280;6454;43.304;24.344;2022-12-31T00:18:33;101345.41;;;6.94;80.20
12781;BME280;6454;43.304;24.344;2022-12-31T00:21:03;101348.38;;;6.92;80.62
12781;BME280;6454;43.304;24.344;2022-12-31T00:23:30;101353.06;;;6.97;80.42
12781;BME280;6454;43.304;24.344;2022-12-31T00:26:03;101357.63;;;6.85;80.05
12781;BME280;6454;43.304;24.344;2022-12-31T00:28:29;101352.94;;;6.80;80.47
12781;BME280;6454;43.304;24.344;2022-12-31T00:30:56;101349.84;;;6.77;80.16
12781;BME280;6454;43.304;24.344;2022-12-31T00:33:28;101356.91;;;6.78;79.89
12781;BME280;6454;43.304;24.344;2022-12-31T00:36:03;101356.03;;;6.54;80.34
12781;BME280;6454;43.304;24.344;2022-12-31T00:38:30;101370.09;;;6.56;80.31
12781;BME280;6454;43.304;24.344;2022-12-31T00:40:56;101373.47;;;6.52;80.09
12781;BME280;6454;43.304;24.344;2022-12-31T00:43:24;101375.44;;;6.44;80.51
12781;BME280;6454;43.304;24.344;2022-12-31T00:45:51;101365.00;;;6.36;81.28
12781;BME280;6454;43.304;24.344;2022-12-31T00:48:18;101364.53;;;6.39;81.50
12781;BME280;6454;43.304;24.344;2022-12-31T00:50:45;101370.50;;;6.41;80.56
12781;BME280;6454;43.304;24.344;2022-12-31T00:53:12;101374.59;;;6.32;80.22
12781;BME280;6454;43.304;24.344;2022-12-31T00:55:38;101374.22;;;6.29;80.19
12781;BME280;6454;43.304;24.344;2022-12-31T00:58:05;101374.06;;;6.24;79.52
12781;BME280;6454;43.304;24.344;2022-12-31T01:00:35;101372.66;;;6.21;79.29
12781;BME280;6454;43.304;24.344;2022-12-31T01:03:02;101378.69;;;6.05;79.89
12781;BME280;6454;43.304;24.344;2022-12-31T01:05:30;101373.38;;;5.99;79.84
12781;BME280;6454;43.304;24.344;2022-12-31T01:07:56;101383.41;;;5.92;79.89
12781;BME280;6454;43.304;24.344;2022-12-31T01:10:24;101380.03;;;5.78;80.20
12781;BME280;6454;43.304;24.344;2022-12-31T01:13:04;101384.94;;;5.81;79.93
12781;BME280;6454;43.304;24.344;2022-12-31T01:15:33;101355.34;;;5.63;79.22
12781;BME280;6454;43.304;24.344;2022-12-31T01:18:00;101383.69;;;5.65;79.81
12781;BME280;6454;43.304;24.344;2022-12-31T01:20:27;101382.56;;;5.55;80.30
12781;BME280;6454;43.304;24.344;2022-12-31T01:22:54;101381.72;;;5.54;80.09
12781;BME280;6454;43.304;24.344;2022-12-31T01:25:21;101379.72;;;5.50;79.74
12781;BME280;6454;43.304;24.344;2022-12-31T01:27:48;101388.75;;;5.37;80.18
12781;BME280;6454;43.304;24.344;2022-12-31T01:30:14;101393.88;;;5.39;80.14
12781;BME280;6454;43.304;24.344;2022-12-31T01:32:42;101385.91;;;5.32;79.90
12781;BME280;6454;43.304;24.344;2022-12-31T01:35:09;101385.34;;;5.23;80.07
12781;BME280;6454;43.304;24.344;2022-12-31T01:37:36;101393.72;;;5.15;80.67
12781;BME280;6454;43.304;24.344;2022-12-31T01:40:04;101396.25;;;5.10;80.47
12781;BME280;6454;43.304;24.344;2022-12-31T01:42:31;101406.25;;;5.03;80.49
12781;BME280;6454;43.304;24.344;2022-12-31T01:44:57;101402.75;;;4.96;80.77
12781;BME280;6454;43.304;24.344;2022-12-31T01:47:33;101397.22;;;4.91;80.45
12781;BME280;6454;43.304;24.344;2022-12-31T01:50:07;101397.44;;;4.90;80.12
12781;BME280;6454;43.304;24.344;2022-12-31T01:52:38;101400.66;;;4.74;80.86
12781;BME280;6454;43.304;24.344;2022-12-31T01:55:11;101365.69;;;4.49;80.24
12781;BME280;6454;43.304;24.344;2022-12-31T01:57:41;101410.63;;;4.67;80.69
12781;BME280;6454;43.304;24.344;2022-12-31T02:00:09;101414.41;;;4.59;80.90
12781;BME280;6454;43.304;24.344;2022-12-31T02:02:36;101406.56;;;4.57;80.95
12781;BME280;6454;43.304;24.344;2022-12-31T02:05:11;101401.41;;;4.56;80.41
12781;BME280;6454;43.304;24.344;2022-12-31T02:07:39;101405.00;;;4.43;80.43
12781;BME280;6454;43.304;24.344;2022-12-31T02:10:07;101403.41;;;4.36;80.85
12781;BME280;6454;43.304;24.344;2022-12-31T02:12:34;101409.78;;;4.35;80.76
12781;BME280;6454;43.304;24.344;2022-12-31T02:15:01;101413.31;;;4.35;80.39
12781;BME280;6454;43.304;24.344;2022-12-31T02:17:32;101415.84;;;4.24;80.88
12781;BME280;6454;43.304;24.344;2022-12-31T02:20:23;101409.66;;;4.23;81.13
12781;BME280;6454;43.304;24.344;2022-12-31T02:23:22;101416.00;;;4.29;80.96
12781;BME280;6454;43.304;24.344;2022-12-31T02:32:03;101410.72;;;4.09;80.39
12781;BME280;6454;43.304;24.344;2022-12-31T02:34:36;101414.94;;;3.99;81.26
12781;BME280;6454;43.304;24.344;2022-12-31T02:37:08;101420.50;;;4.04;81.20
12781;BME280;6454;43.304;24.344;2022-12-31T02:39:36;101420.50;;;4.04;80.68
12781;BME280;6454;43.304;24.344;2022-12-31T02:42:03;101413.72;;;3.88;81.13
12781;BME280;6454;43.304;24.344;2022-12-31T02:44:32;101418.50;;;3.86;81.48
12781;BME280;6454;43.304;24.344;2022-12-31T02:47:10;101420.94;;;3.87;81.86
12781;BME280;6454;43.304;24.344;2022-12-31T02:49:46;101410.66;;;3.78;82.00
12781;BME280;6454;43.304;24.344;2022-12-31T02:52:26;101413.13;;;3.79;82.12
12781;BME280;6454;43.304;24.344;2022-12-31T02:55:05;101418.50;;;3.79;82.25
12781;BME280;6454;43.304;24.344;2022-12-31T02:57:39;101421.81;;;3.75;81.74
12781;BME280;6454;43.304;24.344;2022-12-31T03:00:09;101417.09;;;3.70;82.46
12781;BME280;6454;43.304;24.344;2022-12-31T03:02:57;101424.09;;;3.71;82.31
12781;BME280;6454;43.304;24.344;2022-12-31T03:05:27;101422.44;;;3.70;82.18
12781;BME280;6454;43.304;24.344;2022-12-31T03:07:55;101418.09;;;3.69;81.98
12781;BME280;6454;43.304;24.344;2022-12-31T03:10:22;101418.09;;;3.69;81.97
12781;BME280;6454;43.304;24.344;2022-12-31T03:12:49;101422.47;;;3.64;81.86
12781;BME280;6454;43.304;24.344;2022-12-31T03:15:18;101430.50;;;3.57;82.53
12781;BME280;6454;43.304;24.344;2022-12-31T03:17:50;101430.50;;;3.57;82.29
12781;BME280;6454;43.304;24.344;2022-12-31T03:20:20;101433.00;;;3.52;81.78
12781;BME280;6454;43.304;24.344;2022-12-31T03:23:06;101436.13;;;3.43;82.90
12781;BME280;6454;43.304;24.344;2022-12-31T03:25:33;101436.31;;;3.48;82.68
12781;BME280;6454;43.304;24.344;2022-12-31T03:28:01;101404.97;;;3.22;82.87
12781;BME280;6454;43.304;24.344;2022-12-31T03:30:28;101428.28;;;3.41;83.36
12781;BME280;6454;43.304;24.344;2022-12-31T03:32:56;101425.81;;;3.46;83.49
12781;BME280;6454;43.304;24.344;2022-12-31T03:35:26;101431.97;;;3.47;82.50
12781;BME280;6454;43.304;24.344;2022-12-31T03:37:54;101430.34;;;3.39;82.29
12781;BME280;6454;43.304;24.344;2022-12-31T03:40:23;101427.44;;;3.34;83.31
12781;BME280;6454;43.304;24.344;2022-12-31T03:42:51;101431.38;;;3.38;83.28
12781;BME280;6454;43.304;24.344;2022-12-31T03:45:18;101425.41;;;3.36;82.84
12781;BME280;6454;43.304;24.344;2022-12-31T03:47:45;101430.56;;;3.31;83.50
12781;BME280;6454;43.304;24.344;2022-12-31T03:50:13;101401.28;;;3.16;82.48
12781;BME280;6454;43.304;24.344;2022-12-31T03:52:41;101434.88;;;3.32;82.41
12781;BME280;6454;43.304;24.344;2022-12-31T03:55:09;101440.25;;;3.25;82.80
12781;BME280;6454;43.304;24.344;2022-12-31T03:57:37;101440.88;;;3.28;83.21
12781;BME280;6454;43.304;24.344;2022-12-31T04:00:06;101443.97;;;3.31;82.89
12781;BME280;6454;43.304;24.344;2022-12-31T04:02:33;101443.34;;;3.22;82.77
12781;BME280;6454;43.304;24.344;2022-12-31T04:05:00;101436.34;;;3.21;82.49
12781;BME280;6454;43.304;24.344;2022-12-31T04:07:27;101445.84;;;3.24;81.85
12781;BME280;6454;43.304;24.344;2022-12-31T04:09:55;101446.03;;;3.16;82.10
12781;BME280;6454;43.304;24.344;2022-12-31T04:12:22;101440.88;;;3.08;82.63
12781;BME280;6454;43.304;24.344;2022-12-31T04:14:49;101449.53;;;3.10;83.38
12781;BME280;6454;43.304;24.344;2022-12-31T04:17:16;101450.78;;;3.14;83.34
12781;BME280;6454;43.304;24.344;2022-12-31T04:19:43;101452.22;;;3.10;83.63
12781;BME280;6454;43.304;24.344;2022-12-31T04:22:10;101467.88;;;3.00;83.94
12781;BME280;6454;43.304;24.344;2022-12-31T04:24:37;101462.72;;;3.05;83.46
12781;BME280;6454;43.304;24.344;2022-12-31T04:27:05;101464.59;;;2.98;83.60
12781;BME280;6454;43.304;24.344;2022-12-31T04:29:32;101463.56;;;2.99;84.03
12781;BME280;6454;43.304;24.344;2022-12-31T04:31:58;101469.94;;;2.98;83.33
12781;BME280;6454;43.304;24.344;2022-12-31T04:34:25;101466.44;;;2.97;83.39
12781;BME280;6454;43.304;24.344;2022-12-31T04:36:52;101475.09;;;2.86;83.73
12781;BME280;6454;43.304;24.344;2022-12-31T04:39:19;101475.50;;;2.90;83.95
12781;BME280;6454;43.304;24.344;2022-12-31T04:41:45;101476.31;;;2.90;83.20
12781;BME280;6454;43.304;24.344;2022-12-31T04:44:14;101462.09;;;2.77;83.47
12781;BME280;6454;43.304;24.344;2022-12-31T04:46:41;101487.03;;;2.84;83.65
12781;BME280;6454;43.304;24.344;2022-12-31T04:49:08;101491.78;;;2.88;83.64
12781;BME280;6454;43.304;24.344;2022-12-31T04:51:35;101486.81;;;2.85;83.50
12781;BME280;6454;43.304;24.344;2022-12-31T04:54:02;101482.91;;;2.81;83.62
12781;BME280;6454;43.304;24.344;2022-12-31T04:56:29;101496.09;;;2.89;83.35
12781;BME280;6454;43.304;24.344;2022-12-31T04:58:56;101489.72;;;2.84;82.81
12781;BME280;6454;43.304;24.344;2022-12-31T05:01:24;101494.44;;;2.82;83.42
12781;BME280;6454;43.304;24.344;2022-12-31T05:03:51;101492.19;;;2.79;83.35
12781;BME280;6454;43.304;24.344;2022-12-31T05:06:19;101492.38;;;2.77;82.91
12781;BME280;6454;43.304;24.344;2022-12-31T05:08:46;101497.72;;;2.71;83.54
12781;BME280;6454;43.304;24.344;2022-12-31T05:11:13;101500.41;;;2.77;83.54
12781;BME280;6454;43.304;24.344;2022-12-31T05:13:41;101506.56;;;2.65;83.44
12781;BME280;6454;43.304;24.344;2022-12-31T05:16:07;101508.38;;;2.57;83.68
12781;BME280;6454;43.304;24.344;2022-12-31T05:18:36;101510.06;;;2.58;83.78
12781;BME280;6454;43.304;24.344;2022-12-31T05:21:03;101512.13;;;2.56;84.07
12781;BME280;6454;43.304;24.344;2022-12-31T05:23:30;101518.47;;;2.55;83.95
12781;BME280;6454;43.304;24.344;2022-12-31T05:25:57;101518.88;;;2.52;84.64
12781;BME280;6454;43.304;24.344;2022-12-31T05:28:24;101517.47;;;2.56;84.26
12781;BME280;6454;43.304;24.344;2022-12-31T05:30:51;101527.31;;;2.49;84.14
12781;BME280;6454;43.304;24.344;2022-12-31T05:33:18;101525.06;;;2.46;84.25
12781;BME280;6454;43.304;24.344;2022-12-31T05:35:46;101531.03;;;2.48;84.51
12781;BME280;6454;43.304;24.344;2022-12-31T05:38:13;101511.22;;;2.43;83.79
12781;BME280;6454;43.304;24.344;2022-12-31T05:40:40;101533.31;;;2.51;83.67
12781;BME280;6454;43.304;24.344;2022-12-31T05:43:07;101534.72;;;2.47;84.05
12781;BME280;6454;43.304;24.344;2022-12-31T05:45:34;101534.34;;;2.50;83.87
12781;BME280;6454;43.304;24.344;2022-12-31T05:48:00;101541.94;;;2.47;84.11
12781;BME280;6454;43.304;24.344;2022-12-31T05:50:27;101549.56;;;2.43;84.20
12781;BME280;6454;43.304;24.344;2022-12-31T05:52:56;101544.81;;;2.45;83.92
12781;BME280;6454;43.304;24.344;2022-12-31T05:55:22;101544.59;;;2.47;84.10
12781;BME280;6454;43.304;24.344;2022-12-31T05:57:49;101554.06;;;2.43;83.96
12781;BME280;6454;43.304;24.344;2022-12-31T06:00:16;101549.56;;;2.43;83.72
12781;BME280;6454;43.304;24.344;2022-12-31T06:02:43;101548.31;;;2.46;83.66
12781;BME280;6454;43.304;24.344;2022-12-31T06:05:10;101550.38;;;2.44;84.05
12781;BME280;6454;43.304;24.344;2022-12-31T06:07:36;101556.97;;;2.41;84.61
12781;BME280;6454;43.304;24.344;2022-12-31T06:10:05;101555.53;;;2.45;84.26
12781;BME280;6454;43.304;24.344;2022-12-31T06:12:32;101558.66;;;2.49;84.66
12781;BME280;6454;43.304;24.344;2022-12-31T06:14:59;101553.06;;;2.44;85.19
12781;BME280;6454;43.304;24.344;2022-12-31T06:17:26;101561.50;;;2.47;85.02
12781;BME280;6454;43.304;24.344;2022-12-31T06:19:54;101558.81;;;2.47;84.97
12781;BME280;6454;43.304;24.344;2022-12-31T06:22:21;101560.25;;;2.43;85.34
12781;BME280;6454;43.304;24.344;2022-12-31T06:24:48;101563.19;;;2.55;86.72
12781;BME280;6454;43.304;24.344;2022-12-31T06:27:16;101567.16;;;2.66;86.33
12781;BME280;6454;43.304;24.344;2022-12-31T06:29:43;101566.94;;;2.67;86.72
12781;BME280;6454;43.304;24.344;2022-12-31T06:32:10;101573.13;;;2.68;86.78
12781;BME280;6454;43.304;24.344;2022-12-31T06:34:37;101576.25;;;2.71;86.56
12781;BME280;6454;43.304;24.344;2022-12-31T06:37:04;101572.34;;;2.74;87.19
12781;BME280;6454;43.304;24.344;2022-12-31T06:39:31;101581.00;;;2.76;88.05
12781;BME280;6454;43.304;24.344;2022-12-31T06:41:58;101579.19;;;2.83;89.29
12781;BME280;6454;43.304;24.344;2022-12-31T06:44:26;101586.22;;;2.97;90.28
12781;BME280;6454;43.304;24.344;2022-12-31T06:46:53;101584.63;;;3.09;91.74
12781;BME280;6454;43.304;24.344;2022-12-31T06:49:19;101579.91;;;3.37;93.47
12781;BME280;6454;43.304;24.344;2022-12-31T06:51:46;101589.88;;;3.56;93.82
12781;BME280;6454;43.304;24.344;2022-12-31T06:54:13;101586.75;;;3.72;94.17
12781;BME280;6454;43.304;24.344;2022-12-31T06:56:41;101589.03;;;3.95;94.49
12781;BME280;6454;43.304;24.344;2022-12-31T06:59:21;101587.16;;;4.09;93.79
12781;BME280;6454;43.304;24.344;2022-12-31T07:02:01;101591.47;;;4.23;94.10
12781;BME280;6454;43.304;24.344;2022-12-31T07:04:45;101589.16;;;4.39;93.96
12781;BME280;6454;43.304;24.344;2022-12-31T07:07:20;101601.72;;;4.59;93.32
12781;BME280;6454;43.304;24.344;2022-12-31T07:09:56;101599.56;;;4.74;93.22
12781;BME280;6454;43.304;24.344;2022-12-31T07:12:35;101608.19;;;4.95;92.68
12781;BME280;6454;43.304;24.344;2022-12-31T07:15:04;101614.72;;;5.12;92.09
12781;BME280;6454;43.304;24.344;2022-12-31T07:17:41;101618.38;;;5.25;91.38
12781;BME280;6454;43.304;24.344;2022-12-31T07:20:15;101622.41;;;5.40;91.15
12781;BME280;6454;43.304;24.344;2022-12-31T07:22:42;101628.03;;;5.63;90.29
12781;BME280;6454;43.304;24.344;2022-12-31T07:25:12;101616.81;;;5.73;89.29
12781;BME280;6454;43.304;24.344;2022-12-31T07:27:55;101626.19;;;5.95;88.72
12781;BME280;6454;43.304;24.344;2022-12-31T07:30:35;101633.09;;;6.09;87.94
12781;BME280;6454;43.304;24.344;2022-12-31T07:33:21;101641.91;;;6.23;87.02
12781;BME280;6454;43.304;24.344;2022-12-31T07:35:59;101636.22;;;6.31;86.87
12781;BME280;6454;43.304;24.344;2022-12-31T07:38:32;101640.00;;;6.48;86.18
12781;BME280;6454;43.304;24.344;2022-12-31T07:41:07;101634.09;;;6.58;85.89
12781;BME280;6454;43.304;24.344;2022-12-31T07:43:45;101633.78;;;6.66;85.53
12781;BME280;6454;43.304;24.344;2022-12-31T07:46:18;101642.09;;;6.82;84.82
12781;BME280;6454;43.304;24.344;2022-12-31T07:48:49;101639.56;;;6.87;84.47
12781;BME280;6454;43.304;24.344;2022-12-31T07:51:17;101639.50;;;7.05;84.25
12781;BME280;6454;43.304;24.344;2022-12-31T07:53:43;101637.09;;;7.15;84.01
12781;BME280;6454;43.304;24.344;2022-12-31T07:56:10;101635.66;;;7.31;83.42
12781;BME280;6454;43.304;24.344;2022-12-31T07:58:49;101641.72;;;7.45;82.97
12781;BME280;6454;43.304;24.344;2022-12-31T08:01:32;101640.91;;;7.56;82.33
12781;BME280;6454;43.304;24.344;2022-12-31T08:04:06;101643.78;;;7.72;81.93
12781;BME280;6454;43.304;24.344;2022-12-31T08:06:40;101640.28;;;7.84;81.59
12781;BME280;6454;43.304;24.344;2022-12-31T08:09:23;101644.88;;;7.95;81.64
12781;BME280;6454;43.304;24.344;2022-12-31T08:11:54;101646.31;;;8.09;81.05
12781;BME280;6454;43.304;24.344;2022-12-31T08:14:23;101646.69;;;8.12;81.18
12781;BME280;6454;43.304;24.344;2022-12-31T08:16:50;101648.66;;;8.17;80.80
12781;BME280;6454;43.304;24.344;2022-12-31T08:19:23;101656.81;;;8.28;80.47
12781;BME280;6454;43.304;24.344;2022-12-31T08:22:05;101657.16;;;8.43;80.36
12781;BME280;6454;43.304;24.344;2022-12-31T08:24:41;101649.97;;;8.61;80.12
12781;BME280;6454;43.304;24.344;2022-12-31T08:27:22;101652.19;;;8.75;79.57
12781;BME280;6454;43.304;24.344;2022-12-31T08:29:59;101648.66;;;8.86;79.43
12781;BME280;6454;43.304;24.344;2022-12-31T08:32:34;101648.50;;;9.04;79.58
12781;BME280;6454;43.304;24.344;2022-12-31T08:35:15;101648.69;;;9.15;79.16
12781;BME280;6454;43.304;24.344;2022-12-31T08:37:48;101646.19;;;9.25;78.33
12781;BME280;6454;43.304;24.344;2022-12-31T08:40:21;101647.19;;;9.35;78.01
12781;BME280;6454;43.304;24.344;2022-12-31T08:43:21;101643.84;;;9.45;77.01
12781;BME280;6454;43.304;24.344;2022-12-31T08:45:55;101638.06;;;9.53;77.15
12781;BME280;6454;43.304;24.344;2022-12-31T08:48:30;101642.69;;;9.69;76.43
12781;BME280;6454;43.304;24.344;2022-12-31T08:51:00;101643.34;;;9.76;75.73
12781;BME280;6454;43.304;24.344;2022-12-31T08:53:27;101634.97;;;9.78;74.75
12781;BME280;6454;43.304;24.344;2022-12-31T08:55:56;101638.41;;;9.90;75.06
12781;BME280;6454;43.304;24.344;2022-12-31T08:58:36;101636.22;;;10.03;74.11
12781;BME280;6454;43.304;24.344;2022-12-31T09:01:07;101633.09;;;10.11;74.00
12781;BME280;6454;43.304;24.344;2022-12-31T09:03:44;101629.06;;;10.30;73.36
12781;BME280;6454;43.304;24.344;2022-12-31T09:06:25;101623.25;;;10.39;73.79
12781;BME280;6454;43.304;24.344;2022-12-31T09:08:57;101622.97;;;10.57;73.05
12781;BME280;6454;43.304;24.344;2022-12-31T09:11:30;101625.06;;;10.71;72.45
12781;BME280;6454;43.304;24.344;2022-12-31T09:14:20;101615.78;;;10.89;72.30
12781;BME280;6454;43.304;24.344;2022-12-31T09:16:58;101622.41;;;10.98;72.42
12781;BME280;6454;43.304;24.344;2022-12-31T09:19:27;101616.03;;;11.09;71.54
12781;BME280;6454;43.304;24.344;2022-12-31T09:21:55;101604.69;;;11.17;71.21
12781;BME280;6454;43.304;24.344;2022-12-31T09:24:23;101603.53;;;11.35;71.32
12781;BME280;6454;43.304;24.344;2022-12-31T09:26:59;101605.28;;;11.46;71.13
12781;BME280;6454;43.304;24.344;2022-12-31T09:29:39;101598.09;;;11.61;70.16
12781;BME280;6454;43.304;24.344;2022-12-31T09:32:15;101595.44;;;11.67;70.09
12781;BME280;6454;43.304;24.344;2022-12-31T09:34:50;101590.63;;;11.74;69.80
12781;BME280;6454;43.304;24.344;2022-12-31T09:37:28;101588.53;;;11.86;69.35
12781;BME280;6454;43.304;24.344;2022-12-31T09:40:19;101588.34;;;11.97;68.97
12781;BME280;6454;43.304;24.344;2022-12-31T09:43:10;101590.28;;;12.02;69.03
12781;BME280;6454;43.304;24.344;2022-12-31T09:46:04;101586.06;;;12.16;69.25
12781;BME280;6454;43.304;24.344;2022-12-31T09:49:12;101577.94;;;12.21;68.29
12781;BME280;6454;43.304;24.344;2022-12-31T09:51:51;101576.63;;;12.28;67.68
12781;BME280;6454;43.304;24.344;2022-12-31T09:54:36;101556.28;;;12.41;66.93
12781;BME280;6454;43.304;24.344;2022-12-31T09:57:20;101564.25;;;12.58;66.20
12781;BME280;6454;43.304;24.344;2022-12-31T09:59:54;101555.84;;;12.69;65.91
12781;BME280;6454;43.304;24.344;2022-12-31T10:02:40;101553.19;;;12.84;65.13
12781;BME280;6454;43.304;24.344;2022-12-31T10:05:39;101549.66;;;12.94;64.65
12781;BME280;6454;43.304;24.344;2022-12-31T10:08:14;101552.97;;;13.01;64.54
12781;BME280;6454;43.304;24.344;2022-12-31T10:10:51;101544.56;;;13.08;64.65
12781;BME280;6454;43.304;24.344;2022-12-31T10:13:36;101550.56;;;13.10;64.24
12781;BME280;6454;43.304;24.344;2022-12-31T10:16:30;101545.13;;;13.20;63.52
12781;BME280;6454;43.304;24.344;2022-12-31T10:19:20;101546.81;;;13.31;63.08
12781;BME280;6454;43.304;24.344;2022-12-31T10:21:55;101543.25;;;13.40;62.01
12781;BME280;6454;43.304;24.344;2022-12-31T10:27:27;101538.34;;;13.42;62.58
12781;BME280;6454;43.304;24.344;2022-12-31T10:30:07;101532.63;;;13.54;61.64
12781;BME280;6454;43.304;24.344;2022-12-31T10:32:42;101531.53;;;13.55;62.20
12781;BME280;6454;43.304;24.344;2022-12-31T10:35:18;101526.91;;;13.66;61.11
12781;BME280;6454;43.304;24.344;2022-12-31T10:37:56;101533.72;;;13.78;60.75
12781;BME280;6454;43.304;24.344;2022-12-31T10:40:38;101533.16;;;13.86;60.17
12781;BME280;6454;43.304;24.344;2022-12-31T10:46:53;101520.06;;;13.98;60.09
12781;BME280;6454;43.304;24.344;2022-12-31T10:50:03;101523.84;;;14.07;59.42
12781;BME280;6454;43.304;24.344;2022-12-31T10:55:59;101518.41;;;14.07;59.51
12781;BME280;6454;43.304;24.344;2022-12-31T11:01:47;101519.75;;;14.20;58.35
12781;BME280;6454;43.304;24.344;2022-12-31T11:07:33;101512.38;;;14.26;57.52
12781;BME280;6454;43.304;24.344;2022-12-31T11:10:24;101515.34;;;14.29;57.25
12781;BME280;6454;43.304;24.344;2022-12-31T11:13:37;101507.72;;;14.31;57.63
12781;BME280;6454;43.304;24.344;2022-12-31T11:16:18;101513.97;;;14.37;56.39
12781;BME280;6454;43.304;24.344;2022-12-31T11:18:57;101503.31;;;14.45;54.57
12781;BME280;6454;43.304;24.344;2022-12-31T11:21:41;101500.53;;;14.55;54.64
12781;BME280;6454;43.304;24.344;2022-12-31T11:24:26;101499.41;;;14.56;55.45
12781;BME280;6454;43.304;24.344;2022-12-31T11:27:16;101513.34;;;14.60;54.85
12781;BME280;6454;43.304;24.344;2022-12-31T11:29:55;101515.53;;;14.63;53.72
12781;BME280;6454;43.304;24.344;2022-12-31T11:32:38;101508.91;;;14.74;54.13
12781;BME280;6454;43.304;24.344;2022-12-31T11:35:22;101502.06;;;14.76;53.94
12781;BME280;6454;43.304;24.344;2022-12-31T11:37:59;101499.06;;;14.78;54.61
12781;BME280;6454;43.304;24.344;2022-12-31T11:40:39;101494.66;;;14.82;54.74
12781;BME280;6454;43.304;24.344;2022-12-31T11:43:25;101504.50;;;14.83;54.87
12781;BME280;6454;43.304;24.344;2022-12-31T11:46:23;101502.53;;;14.89;54.26
12781;BME280;6454;43.304;24.344;2022-12-31T11:49:02;101517.00;;;14.94;54.34
12781;BME280;6454;43.304;24.344;2022-12-31T11:52:00;101508.50;;;15.01;53.90
12781;BME280;6454;43.304;24.344;2022-12-31T11:54:51;101497.28;;;15.02;54.50
12781;BME280;6454;43.304;24.344;2022-12-31T11:57:24;101506.00;;;15.04;54.71
12781;BME280;6454;43.304;24.344;2022-12-31T11:59:56;101499.72;;;15.04;55.37
12781;BME280;6454;43.304;24.344;2022-12-31T12:02:26;101509.22;;;15.11;54.70
12781;BME280;6454;43.304;24.344;2022-12-31T12:04:55;101505.66;;;15.11;53.61
12781;BME280;6454;43.304;24.344;2022-12-31T12:07:25;101510.56;;;15.14;54.08
12781;BME280;6454;43.304;24.344;2022-12-31T12:09:54;101358.41;;;14.21;53.52
12781;BME280;6454;43.304;24.344;2022-12-31T12:12:21;101509.69;;;15.23;53.32
12781;BME280;6454;43.304;24.344;2022-12-31T12:14:51;101511.88;;;15.21;53.48
12781;BME280;6454;43.304;24.344;2022-12-31T12:17:26;101514.88;;;15.25;53.38
12781;BME280;6454;43.304;24.344;2022-12-31T12:19:59;101510.25;;;15.25;52.97
12781;BME280;6454;43.304;24.344;2022-12-31T12:22:29;101514.59;;;15.26;53.06
12781;BME280;6454;43.304;24.344;2022-12-31T12:25:01;101520.59;;;15.28;53.46
12781;BME280;6454;43.304;24.344;2022-12-31T12:27:30;101517.28;;;15.31;53.36
12781;BME280;6454;43.304;24.344;2022-12-31T12:30:07;101524.97;;;15.29;53.10
12781;BME280;6454;43.304;24.344;2022-12-31T12:32:34;101528.78;;;15.28;53.24
12781;BME280;6454;43.304;24.344;2022-12-31T12:35:12;101521.69;;;15.27;54.01
12781;BME280;6454;43.304;24.344;2022-12-31T12:37:40;101520.88;;;15.27;53.42
12781;BME280;6454;43.304;24.344;2022-12-31T12:40:18;101532.91;;;15.26;54.09
12781;BME280;6454;43.304;24.344;2022-12-31T12:42:46;101532.94;;;15.21;53.69
12781;BME280;6454;43.304;24.344;2022-12-31T12:45:15;101532.19;;;15.15;53.33
12781;BME280;6454;43.304;24.344;2022-12-31T12:47:43;101523.94;;;15.20;53.31
12781;BME280;6454;43.304;24.344;2022-12-31T12:50:14;101535.16;;;15.19;53.59
12781;BME280;6454;43.304;24.344;2022-12-31T12:53:01;101537.59;;;15.20;52.77
12781;BME280;6454;43.304;24.344;2022-12-31T12:55:39;101532.69;;;15.17;53.14
12781;BME280;6454;43.304;24.344;2022-12-31T12:58:17;101533.75;;;15.21;53.47
12781;BME280;6454;43.304;24.344;2022-12-31T13:00:50;101540.06;;;15.22;53.54
12781;BME280;6454;43.304;24.344;2022-12-31T13:03:46;101539.25;;;15.16;52.92
12781;BME280;6454;43.304;24.344;2022-12-31T13:06:28;101536.25;;;15.18;53.03
12781;BME280;6454;43.304;24.344;2022-12-31T13:09:20;101537.34;;;15.17;53.35
12781;BME280;6454;43.304;24.344;2022-12-31T13:11:58;101542.00;;;15.16;53.47
12781;BME280;6454;43.304;24.344;2022-12-31T13:14:31;101542.56;;;15.13;53.04
12781;BME280;6454;43.304;24.344;2022-12-31T13:17:21;101540.13;;;15.12;53.48
12781;BME280;6454;43.304;24.344;2022-12-31T13:19:56;101542.00;;;15.16;53.61
12781;BME280;6454;43.304;24.344;2022-12-31T13:22:28;101548.56;;;15.15;53.40
12781;BME280;6454;43.304;24.344;2022-12-31T13:25:03;101552.97;;;15.11;53.63
12781;BME280;6454;43.304;24.344;2022-12-31T13:27:34;101562.25;;;15.15;53.62
12781;BME280;6454;43.304;24.344;2022-12-31T13:30:16;101562.78;;;15.17;53.75
12781;BME280;6454;43.304;24.344;2022-12-31T13:32:45;101575.88;;;15.20;53.59
12781;BME280;6454;43.304;24.344;2022-12-31T13:35:21;101569.84;;;15.18;53.79
12781;BME280;6454;43.304;24.344;2022-12-31T13:37:52;101578.66;;;15.15;54.10
12781;BME280;6454;43.304;24.344;2022-12-31T13:40:26;101569.84;;;15.18;54.38
12781;BME280;6454;43.304;24.344;2022-12-31T13:42:59;101569.06;;;15.18;54.63
12781;BME280;6454;43.304;24.344;2022-12-31T13:45:31;101567.16;;;15.13;54.47
12781;BME280;6454;43.304;24.344;2022-12-31T13:48:03;101568.78;;;15.14;54.56
12781;BME280;6454;43.304;24.344;2022-12-31T13:50:35;101569.31;;;15.16;54.42